Birchwood Airport Birchwood US
ICAO: PABV
IATA:
Category: Medium
Scheduled Services:

Elevation: 83 ft
TransAlt. 18000 ft.

Airport Communications:
AWOS 3:135.55
ANCHORAGE CNTR:132.3
CTAF/UNICOM:123

PABV Zoom In..

If you have problems with the map follow the link
https://www.worldairports.se/pages/airport.php?
ICAO=PABV

Runways:

(A) RW 02L length 4010 ft width 100 ft
---- / hdg 14

(B) RW 02R length 2200 ft width 50 ft
---- / hdg 14

(C) RW 20L length 2200 ft width 50 ft
---- / hdg 194

(D) RW 20R length 4010 ft width 100 ft
---- / hdg 194

Location; PABV
Day. 19 / Time. 00.56 Zulu
* Altimeter: 29.86
* Temperature: 08° c. 46.4°f.
* Wind from: 330° Speed 03 kn.
Dewpoint: 04° c.
Visibility: 10 Statute Miles.
Clouds: Clear (automated report).

PABV 190056Z AUTO 33003KT 10SM CLR 08/04 A2986 RMK AO2 SLP121 T00830044


Wind From 330°
Speed 03 kn.

 
 
jpsmedia.com for Web Design worldairports.se 2018   terms of use